sensor_id;sensor_type;location;lat;lon;timestamp;P1;durP1;ratioP1;P2;durP2;ratioP2
12660;SDS011;39039;51.802;5.710;2022-11-24T00:01:49;19.60;;;2.50;;
12660;SDS011;39039;51.802;5.710;2022-11-24T00:04:17;15.77;;;2.33;;
12660;SDS011;39039;51.802;5.710;2022-11-24T00:06:45;13.67;;;2.83;;
12660;SDS011;39039;51.802;5.710;2022-11-24T00:09:12;14.40;;;3.10;;
12660;SDS011;39039;51.802;5.710;2022-11-24T00:11:39;11.80;;;2.57;;
12660;SDS011;39039;51.802;5.710;2022-11-24T00:14:07;12.63;;;2.40;;
12660;SDS011;39039;51.802;5.710;2022-11-24T00:16:34;15.43;;;2.67;;
12660;SDS011;39039;51.802;5.710;2022-11-24T00:19:02;14.73;;;2.80;;
12660;SDS011;39039;51.802;5.710;2022-11-24T00:21:31;8.33;;;2.10;;
12660;SDS011;39039;51.802;5.710;2022-11-24T00:24:00;15.33;;;3.10;;
12660;SDS011;39039;51.802;5.710;2022-11-24T00:26:27;11.13;;;2.10;;
12660;SDS011;39039;51.802;5.710;2022-11-24T00:28:55;13.27;;;2.40;;
12660;SDS011;39039;51.802;5.710;2022-11-24T00:31:23;11.00;;;2.03;;
12660;SDS011;39039;51.802;5.710;2022-11-24T00:33:51;14.50;;;2.33;;
12660;SDS011;39039;51.802;5.710;2022-11-24T00:36:19;7.47;;;1.87;;
12660;SDS011;39039;51.802;5.710;2022-11-24T00:38:47;8.87;;;2.70;;
12660;SDS011;39039;51.802;5.710;2022-11-24T00:41:20;9.00;;;2.33;;
12660;SDS011;39039;51.802;5.710;2022-11-24T00:43:47;14.07;;;2.70;;
12660;SDS011;39039;51.802;5.710;2022-11-24T00:46:16;14.53;;;2.53;;
12660;SDS011;39039;51.802;5.710;2022-11-24T00:48:46;12.93;;;2.30;;
12660;SDS011;39039;51.802;5.710;2022-11-24T00:51:14;17.40;;;3.20;;
12660;SDS011;39039;51.802;5.710;2022-11-24T00:53:41;9.90;;;2.13;;
12660;SDS011;39039;51.802;5.710;2022-11-24T00:56:09;11.43;;;2.10;;
12660;SDS011;39039;51.802;5.710;2022-11-24T00:58:38;18.73;;;2.80;;
12660;SDS011;39039;51.802;5.710;2022-11-24T01:01:05;17.97;;;2.83;;
12660;SDS011;39039;51.802;5.710;2022-11-24T01:03:33;9.63;;;2.10;;
12660;SDS011;39039;51.802;5.710;2022-11-24T01:06:04;12.47;;;2.23;;
12660;SDS011;39039;51.802;5.710;2022-11-24T01:08:31;7.20;;;2.13;;
12660;SDS011;39039;51.802;5.710;2022-11-24T01:11:08;7.63;;;2.07;;
12660;SDS011;39039;51.802;5.710;2022-11-24T01:13:38;8.10;;;2.20;;
12660;SDS011;39039;51.802;5.710;2022-11-24T01:16:15;16.80;;;2.53;;
12660;SDS011;39039;51.802;5.710;2022-11-24T01:18:42;6.10;;;1.90;;
12660;SDS011;39039;51.802;5.710;2022-11-24T01:21:09;10.90;;;2.20;;
12660;SDS011;39039;51.802;5.710;2022-11-24T01:23:37;8.33;;;1.77;;
12660;SDS011;39039;51.802;5.710;2022-11-24T01:26:04;10.63;;;2.37;;
12660;SDS011;39039;51.802;5.710;2022-11-24T01:28:31;6.03;;;1.93;;
12660;SDS011;39039;51.802;5.710;2022-11-24T01:31:01;12.17;;;2.57;;
12660;SDS011;39039;51.802;5.710;2022-11-24T01:33:28;9.67;;;2.17;;
12660;SDS011;39039;51.802;5.710;2022-11-24T01:35:55;11.90;;;1.63;;
12660;SDS011;39039;51.802;5.710;2022-11-24T01:38:23;7.73;;;2.60;;
12660;SDS011;39039;51.802;5.710;2022-11-24T01:40:58;12.50;;;3.10;;
12660;SDS011;39039;51.802;5.710;2022-11-24T01:43:25;15.87;;;2.50;;
12660;SDS011;39039;51.802;5.710;2022-11-24T01:45:53;17.93;;;2.40;;
12660;SDS011;39039;51.802;5.710;2022-11-24T01:48:22;10.73;;;2.00;;
12660;SDS011;39039;51.802;5.710;2022-11-24T01:50:52;10.70;;;2.17;;
12660;SDS011;39039;51.802;5.710;2022-11-24T01:53:20;10.90;;;2.00;;
12660;SDS011;39039;51.802;5.710;2022-11-24T01:55:48;11.30;;;2.33;;
12660;SDS011;39039;51.802;5.710;2022-11-24T01:58:17;16.03;;;2.43;;
12660;SDS011;39039;51.802;5.710;2022-11-24T02:00:45;11.37;;;2.33;;
12660;SDS011;39039;51.802;5.710;2022-11-24T02:03:12;11.57;;;1.60;;
12660;SDS011;39039;51.802;5.710;2022-11-24T02:05:43;15.60;;;2.13;;
12660;SDS011;39039;51.802;5.710;2022-11-24T02:08:12;18.17;;;2.57;;
12660;SDS011;39039;51.802;5.710;2022-11-24T02:10:43;11.67;;;2.27;;
12660;SDS011;39039;51.802;5.710;2022-11-24T02:13:14;11.63;;;2.23;;
12660;SDS011;39039;51.802;5.710;2022-11-24T02:15:42;9.43;;;2.10;;
12660;SDS011;39039;51.802;5.710;2022-11-24T02:18:09;10.40;;;2.20;;
12660;SDS011;39039;51.802;5.710;2022-11-24T02:20:36;10.00;;;2.40;;
12660;SDS011;39039;51.802;5.710;2022-11-24T02:23:08;11.60;;;2.67;;
12660;SDS011;39039;51.802;5.710;2022-11-24T02:25:41;18.87;;;2.67;;
12660;SDS011;39039;51.802;5.710;2022-11-24T02:28:13;19.70;;;2.60;;
12660;SDS011;39039;51.802;5.710;2022-11-24T02:30:41;9.70;;;1.87;;
12660;SDS011;39039;51.802;5.710;2022-11-24T02:33:08;15.77;;;2.53;;
12660;SDS011;39039;51.802;5.710;2022-11-24T02:35:35;6.70;;;2.00;;
12660;SDS011;39039;51.802;5.710;2022-11-24T02:38:05;9.77;;;2.17;;
12660;SDS011;39039;51.802;5.710;2022-11-24T02:40:32;12.37;;;1.63;;
12660;SDS011;39039;51.802;5.710;2022-11-24T02:43:01;8.03;;;2.10;;
12660;SDS011;39039;51.802;5.710;2022-11-24T02:45:32;11.97;;;2.77;;
12660;SDS011;39039;51.802;5.710;2022-11-24T02:48:01;8.57;;;1.70;;
12660;SDS011;39039;51.802;5.710;2022-11-24T02:50:28;14.80;;;2.47;;
12660;SDS011;39039;51.802;5.710;2022-11-24T02:52:55;16.17;;;2.80;;
12660;SDS011;39039;51.802;5.710;2022-11-24T02:55:22;9.67;;;1.70;;
12660;SDS011;39039;51.802;5.710;2022-11-24T02:57:49;12.43;;;2.30;;
12660;SDS011;39039;51.802;5.710;2022-11-24T03:00:20;11.70;;;2.17;;
12660;SDS011;39039;51.802;5.710;2022-11-24T03:02:48;11.97;;;2.13;;
12660;SDS011;39039;51.802;5.710;2022-11-24T03:05:15;16.53;;;2.37;;
12660;SDS011;39039;51.802;5.710;2022-11-24T03:07:42;9.23;;;2.10;;
12660;SDS011;39039;51.802;5.710;2022-11-24T03:10:09;13.67;;;2.50;;
12660;SDS011;39039;51.802;5.710;2022-11-24T03:12:36;11.67;;;2.23;;
12660;SDS011;39039;51.802;5.710;2022-11-24T03:15:04;14.30;;;2.50;;
12660;SDS011;39039;51.802;5.710;2022-11-24T03:17:31;11.27;;;2.60;;
12660;SDS011;39039;51.802;5.710;2022-11-24T03:20:00;15.17;;;2.67;;
12660;SDS011;39039;51.802;5.710;2022-11-24T03:22:27;16.77;;;2.67;;
12660;SDS011;39039;51.802;5.710;2022-11-24T03:24:54;10.40;;;2.00;;
12660;SDS011;39039;51.802;5.710;2022-11-24T03:27:21;10.60;;;1.80;;
12660;SDS011;39039;51.802;5.710;2022-11-24T03:29:48;13.97;;;2.40;;
12660;SDS011;39039;51.802;5.710;2022-11-24T03:32:15;20.90;;;2.73;;
12660;SDS011;39039;51.802;5.710;2022-11-24T03:34:44;10.97;;;2.07;;
12660;SDS011;39039;51.802;5.710;2022-11-24T03:37:13;10.17;;;1.40;;
12660;SDS011;39039;51.802;5.710;2022-11-24T03:39:40;12.43;;;2.00;;
12660;SDS011;39039;51.802;5.710;2022-11-24T03:42:07;11.10;;;2.00;;
12660;SDS011;39039;51.802;5.710;2022-11-24T03:44:34;14.97;;;2.80;;
12660;SDS011;39039;51.802;5.710;2022-11-24T03:47:01;13.47;;;3.17;;
12660;SDS011;39039;51.802;5.710;2022-11-24T03:49:28;17.90;;;3.00;;
12660;SDS011;39039;51.802;5.710;2022-11-24T03:51:55;9.00;;;2.67;;
12660;SDS011;39039;51.802;5.710;2022-11-24T03:54:24;15.77;;;2.67;;
12660;SDS011;39039;51.802;5.710;2022-11-24T03:56:51;10.27;;;2.10;;
12660;SDS011;39039;51.802;5.710;2022-11-24T03:59:19;10.13;;;2.27;;
12660;SDS011;39039;51.802;5.710;2022-11-24T04:01:46;13.10;;;2.53;;
12660;SDS011;39039;51.802;5.710;2022-11-24T04:04:13;13.50;;;2.23;;
12660;SDS011;39039;51.802;5.710;2022-11-24T04:06:40;7.87;;;2.00;;
12660;SDS011;39039;51.802;5.710;2022-11-24T04:09:07;10.80;;;2.37;;
12660;SDS011;39039;51.802;5.710;2022-11-24T04:11:36;13.63;;;2.97;;
12660;SDS011;39039;51.802;5.710;2022-11-24T04:14:21;18.03;;;3.17;;
12660;SDS011;39039;51.802;5.710;2022-11-24T04:16:48;9.63;;;2.60;;
12660;SDS011;39039;51.802;5.710;2022-11-24T04:19:15;10.37;;;2.57;;
12660;SDS011;39039;51.802;5.710;2022-11-24T04:21:42;12.63;;;2.60;;
12660;SDS011;39039;51.802;5.710;2022-11-24T04:24:09;19.03;;;2.90;;
12660;SDS011;39039;51.802;5.710;2022-11-24T04:26:37;10.97;;;2.10;;
12660;SDS011;39039;51.802;5.710;2022-11-24T04:29:08;15.47;;;2.70;;
12660;SDS011;39039;51.802;5.710;2022-11-24T04:31:35;20.50;;;2.70;;
12660;SDS011;39039;51.802;5.710;2022-11-24T04:34:02;14.03;;;2.40;;
12660;SDS011;39039;51.802;5.710;2022-11-24T04:36:30;17.43;;;2.93;;
12660;SDS011;39039;51.802;5.710;2022-11-24T04:38:57;17.47;;;2.80;;
12660;SDS011;39039;51.802;5.710;2022-11-24T04:41:24;14.10;;;2.37;;
12660;SDS011;39039;51.802;5.710;2022-11-24T04:43:53;15.77;;;3.60;;
12660;SDS011;39039;51.802;5.710;2022-11-24T04:46:19;18.37;;;2.90;;
12660;SDS011;39039;51.802;5.710;2022-11-24T04:48:46;16.83;;;2.37;;
12660;SDS011;39039;51.802;5.710;2022-11-24T04:51:13;13.07;;;2.27;;
12660;SDS011;39039;51.802;5.710;2022-11-24T04:53:41;12.10;;;2.90;;
12660;SDS011;39039;51.802;5.710;2022-11-24T04:56:08;8.03;;;2.40;;
12660;SDS011;39039;51.802;5.710;2022-11-24T04:58:35;17.87;;;2.37;;
12660;SDS011;39039;51.802;5.710;2022-11-24T05:01:06;10.70;;;2.70;;
12660;SDS011;39039;51.802;5.710;2022-11-24T05:03:33;11.67;;;2.20;;
12660;SDS011;39039;51.802;5.710;2022-11-24T05:06:00;12.40;;;2.20;;
12660;SDS011;39039;51.802;5.710;2022-11-24T05:08:27;18.50;;;3.37;;
12660;SDS011;39039;51.802;5.710;2022-11-24T05:10:54;11.57;;;2.07;;
12660;SDS011;39039;51.802;5.710;2022-11-24T05:13:23;16.73;;;2.63;;
12660;SDS011;39039;51.802;5.710;2022-11-24T05:15:53;13.10;;;2.63;;
12660;SDS011;39039;51.802;5.710;2022-11-24T05:18:21;8.90;;;2.30;;
12660;SDS011;39039;51.802;5.710;2022-11-24T05:20:49;9.40;;;2.10;;
12660;SDS011;39039;51.802;5.710;2022-11-24T05:23:16;11.13;;;2.50;;
12660;SDS011;39039;51.802;5.710;2022-11-24T05:25:43;7.40;;;1.73;;
12660;SDS011;39039;51.802;5.710;2022-11-24T05:28:10;8.13;;;2.17;;
12660;SDS011;39039;51.802;5.710;2022-11-24T05:30:37;7.40;;;1.97;;
12660;SDS011;39039;51.802;5.710;2022-11-24T05:33:05;4.10;;;1.37;;
12660;SDS011;39039;51.802;5.710;2022-11-24T05:35:36;8.67;;;1.20;;
12660;SDS011;39039;51.802;5.710;2022-11-24T05:38:03;5.67;;;1.10;;
12660;SDS011;39039;51.802;5.710;2022-11-24T05:40:32;5.70;;;1.03;;
12660;SDS011;39039;51.802;5.710;2022-11-24T05:42:59;6.03;;;1.17;;
12660;SDS011;39039;51.802;5.710;2022-11-24T05:45:26;6.43;;;1.27;;
12660;SDS011;39039;51.802;5.710;2022-11-24T05:47:53;3.13;;;1.00;;
12660;SDS011;39039;51.802;5.710;2022-11-24T05:50:21;3.43;;;1.33;;
12660;SDS011;39039;51.802;5.710;2022-11-24T05:52:50;2.13;;;1.10;;
12660;SDS011;39039;51.802;5.710;2022-11-24T05:55:17;6.23;;;1.10;;
12660;SDS011;39039;51.802;5.710;2022-11-24T05:57:44;4.53;;;1.00;;
12660;SDS011;39039;51.802;5.710;2022-11-24T06:00:11;4.30;;;1.27;;
12660;SDS011;39039;51.802;5.710;2022-11-24T06:02:41;4.23;;;1.03;;
12660;SDS011;39039;51.802;5.710;2022-11-24T06:05:10;2.13;;;1.10;;
12660;SDS011;39039;51.802;5.710;2022-11-24T06:07:37;6.63;;;1.10;;
12660;SDS011;39039;51.802;5.710;2022-11-24T06:10:06;3.33;;;1.27;;
12660;SDS011;39039;51.802;5.710;2022-11-24T06:12:33;3.70;;;0.97;;
12660;SDS011;39039;51.802;5.710;2022-11-24T06:15:00;4.03;;;1.33;;
12660;SDS011;39039;51.802;5.710;2022-11-24T06:17:27;2.70;;;1.23;;
12660;SDS011;39039;51.802;5.710;2022-11-24T06:19:54;4.97;;;1.10;;
12660;SDS011;39039;51.802;5.710;2022-11-24T06:22:21;1.93;;;1.00;;
12660;SDS011;39039;51.802;5.710;2022-11-24T06:24:48;11.13;;;1.40;;
12660;SDS011;39039;51.802;5.710;2022-11-24T06:27:16;12.47;;;2.37;;
12660;SDS011;39039;51.802;5.710;2022-11-24T06:29:44;6.07;;;1.40;;
12660;SDS011;39039;51.802;5.710;2022-11-24T06:32:11;4.47;;;1.07;;
12660;SDS011;39039;51.802;5.710;2022-11-24T06:34:38;4.37;;;1.13;;
12660;SDS011;39039;51.802;5.710;2022-11-24T06:37:05;9.50;;;1.13;;
12660;SDS011;39039;51.802;5.710;2022-11-24T06:39:32;6.60;;;1.07;;
12660;SDS011;39039;51.802;5.710;2022-11-24T06:41:59;6.87;;;1.40;;
12660;SDS011;39039;51.802;5.710;2022-11-24T06:44:28;8.60;;;1.30;;
12660;SDS011;39039;51.802;5.710;2022-11-24T06:46:55;6.60;;;1.03;;
12660;SDS011;39039;51.802;5.710;2022-11-24T06:49:22;6.17;;;1.70;;
12660;SDS011;39039;51.802;5.710;2022-11-24T06:51:49;3.23;;;1.50;;
12660;SDS011;39039;51.802;5.710;2022-11-24T06:54:16;8.63;;;1.83;;
12660;SDS011;39039;51.802;5.710;2022-11-24T06:56:45;5.60;;;1.73;;
12660;SDS011;39039;51.802;5.710;2022-11-24T06:59:14;6.20;;;1.70;;
12660;SDS011;39039;51.802;5.710;2022-11-24T07:01:43;3.20;;;1.30;;
12660;SDS011;39039;51.802;5.710;2022-11-24T07:04:10;3.60;;;1.67;;
12660;SDS011;39039;51.802;5.710;2022-11-24T07:06:38;7.73;;;1.73;;
12660;SDS011;39039;51.802;5.710;2022-11-24T07:09:06;8.70;;;2.20;;
12660;SDS011;39039;51.802;5.710;2022-11-24T07:11:33;6.47;;;2.07;;
12660;SDS011;39039;51.802;5.710;2022-11-24T07:14:00;6.37;;;2.07;;
12660;SDS011;39039;51.802;5.710;2022-11-24T07:16:27;5.50;;;2.40;;
12660;SDS011;39039;51.802;5.710;2022-11-24T07:18:56;7.10;;;2.07;;
12660;SDS011;39039;51.802;5.710;2022-11-24T07:21:24;6.37;;;2.20;;
12660;SDS011;39039;51.802;5.710;2022-11-24T07:23:52;5.70;;;1.97;;
12660;SDS011;39039;51.802;5.710;2022-11-24T07:26:19;6.50;;;2.67;;
12660;SDS011;39039;51.802;5.710;2022-11-24T07:28:49;5.10;;;2.00;;
12660;SDS011;39039;51.802;5.710;2022-11-24T07:31:17;5.33;;;1.87;;
12660;SDS011;39039;51.802;5.710;2022-11-24T07:33:46;5.93;;;2.13;;
12660;SDS011;39039;51.802;5.710;2022-11-24T07:36:17;4.87;;;2.20;;
12660;SDS011;39039;51.802;5.710;2022-11-24T07:38:44;5.60;;;1.97;;
12660;SDS011;39039;51.802;5.710;2022-11-24T07:41:13;7.03;;;2.73;;
12660;SDS011;39039;51.802;5.710;2022-11-24T07:43:42;6.73;;;2.53;;
12660;SDS011;39039;51.802;5.710;2022-11-24T07:46:13;6.90;;;2.73;;
12660;SDS011;39039;51.802;5.710;2022-11-24T07:48:41;5.33;;;2.00;;
12660;SDS011;39039;51.802;5.710;2022-11-24T07:51:08;6.73;;;2.27;;
12660;SDS011;39039;51.802;5.710;2022-11-24T07:53:36;4.43;;;1.80;;
12660;SDS011;39039;51.802;5.710;2022-11-24T07:56:04;8.93;;;2.33;;
12660;SDS011;39039;51.802;5.710;2022-11-24T07:58:32;6.43;;;2.33;;
12660;SDS011;39039;51.802;5.710;2022-11-24T08:01:06;6.27;;;2.40;;
12660;SDS011;39039;51.802;5.710;2022-11-24T08:03:34;7.43;;;2.30;;
12660;SDS011;39039;51.802;5.710;2022-11-24T08:06:01;5.00;;;2.13;;
12660;SDS011;39039;51.802;5.710;2022-11-24T08:08:29;8.40;;;2.40;;
12660;SDS011;39039;51.802;5.710;2022-11-24T08:11:00;4.97;;;2.03;;
12660;SDS011;39039;51.802;5.710;2022-11-24T08:13:31;5.03;;;1.90;;
12660;SDS011;39039;51.802;5.710;2022-11-24T08:15:58;11.77;;;2.20;;
12660;SDS011;39039;51.802;5.710;2022-11-24T08:18:25;5.17;;;1.70;;
12660;SDS011;39039;51.802;5.710;2022-11-24T08:20:52;5.00;;;1.77;;
12660;SDS011;39039;51.802;5.710;2022-11-24T08:23:20;9.93;;;2.00;;
12660;SDS011;39039;51.802;5.710;2022-11-24T08:25:47;6.43;;;1.57;;
12660;SDS011;39039;51.802;5.710;2022-11-24T08:28:16;3.60;;;1.57;;
12660;SDS011;39039;51.802;5.710;2022-11-24T08:30:43;9.13;;;1.63;;
12660;SDS011;39039;51.802;5.710;2022-11-24T08:33:10;4.10;;;1.40;;
12660;SDS011;39039;51.802;5.710;2022-11-24T08:35:37;5.27;;;1.60;;
12660;SDS011;39039;51.802;5.710;2022-11-24T08:38:04;8.40;;;1.23;;
12660;SDS011;39039;51.802;5.710;2022-11-24T08:40:31;5.23;;;1.57;;
12660;SDS011;39039;51.802;5.710;2022-11-24T08:43:01;9.23;;;1.70;;
12660;SDS011;39039;51.802;5.710;2022-11-24T08:45:29;7.40;;;1.47;;
12660;SDS011;39039;51.802;5.710;2022-11-24T08:47:57;3.63;;;1.37;;
12660;SDS011;39039;51.802;5.710;2022-11-24T08:50:24;5.97;;;1.47;;
12660;SDS011;39039;51.802;5.710;2022-11-24T08:52:51;4.83;;;1.13;;
12660;SDS011;39039;51.802;5.710;2022-11-24T08:55:21;5.93;;;1.80;;
12660;SDS011;39039;51.802;5.710;2022-11-24T08:57:48;7.30;;;1.50;;
12660;SDS011;39039;51.802;5.710;2022-11-24T09:00:15;5.00;;;1.10;;
12660;SDS011;39039;51.802;5.710;2022-11-24T09:02:57;5.37;;;1.43;;
12660;SDS011;39039;51.802;5.710;2022-11-24T09:05:24;5.77;;;1.50;;
12660;SDS011;39039;51.802;5.710;2022-11-24T09:07:51;8.23;;;1.63;;
12660;SDS011;39039;51.802;5.710;2022-11-24T09:10:18;8.27;;;1.53;;
12660;SDS011;39039;51.802;5.710;2022-11-24T09:12:47;7.63;;;1.30;;
12660;SDS011;39039;51.802;5.710;2022-11-24T09:15:15;3.27;;;1.50;;
12660;SDS011;39039;51.802;5.710;2022-11-24T09:17:44;9.77;;;1.90;;
12660;SDS011;39039;51.802;5.710;2022-11-24T09:20:12;7.77;;;1.93;;
12660;SDS011;39039;51.802;5.710;2022-11-24T09:22:39;9.57;;;1.53;;
12660;SDS011;39039;51.802;5.710;2022-11-24T09:25:07;5.83;;;1.80;;
12660;SDS011;39039;51.802;5.710;2022-11-24T09:27:34;12.30;;;1.90;;
12660;SDS011;39039;51.802;5.710;2022-11-24T09:30:01;6.90;;;1.30;;
12660;SDS011;39039;51.802;5.710;2022-11-24T09:32:28;6.47;;;1.70;;
12660;SDS011;39039;51.802;5.710;2022-11-24T09:34:58;6.37;;;1.40;;
12660;SDS011;39039;51.802;5.710;2022-11-24T09:37:26;6.27;;;1.60;;
12660;SDS011;39039;51.802;5.710;2022-11-24T09:39:53;4.70;;;1.40;;
12660;SDS011;39039;51.802;5.710;2022-11-24T09:42:27;5.10;;;1.40;;
12660;SDS011;39039;51.802;5.710;2022-11-24T09:45:15;5.30;;;1.10;;
12660;SDS011;39039;51.802;5.710;2022-11-24T09:47:50;3.70;;;1.50;;
12660;SDS011;39039;51.802;5.710;2022-11-24T09:50:20;4.57;;;1.20;;
12660;SDS011;39039;51.802;5.710;2022-11-24T09:52:50;9.40;;;1.50;;
12660;SDS011;39039;51.802;5.710;2022-11-24T09:55:28;8.70;;;1.63;;
12660;SDS011;39039;51.802;5.710;2022-11-24T09:58:00;18.20;;;1.70;;
12660;SDS011;39039;51.802;5.710;2022-11-24T10:00:29;6.53;;;2.17;;
12660;SDS011;39039;51.802;5.710;2022-11-24T10:02:56;6.37;;;1.67;;
12660;SDS011;39039;51.802;5.710;2022-11-24T10:05:23;3.60;;;1.50;;
12660;SDS011;39039;51.802;5.710;2022-11-24T10:07:54;5.70;;;1.57;;
12660;SDS011;39039;51.802;5.710;2022-11-24T10:10:23;9.63;;;1.70;;
12660;SDS011;39039;51.802;5.710;2022-11-24T10:12:53;10.07;;;1.70;;
12660;SDS011;39039;51.802;5.710;2022-11-24T10:15:25;9.83;;;1.60;;
12660;SDS011;39039;51.802;5.710;2022-11-24T10:18:00;10.23;;;2.63;;
12660;SDS011;39039;51.802;5.710;2022-11-24T10:20:34;9.17;;;1.73;;
12660;SDS011;39039;51.802;5.710;2022-11-24T10:23:06;13.73;;;1.93;;
12660;SDS011;39039;51.802;5.710;2022-11-24T10:25:41;8.53;;;1.70;;
12660;SDS011;39039;51.802;5.710;2022-11-24T10:28:11;10.30;;;1.73;;
12660;SDS011;39039;51.802;5.710;2022-11-24T10:30:39;8.87;;;1.93;;
12660;SDS011;39039;51.802;5.710;2022-11-24T10:33:07;9.77;;;1.97;;
12660;SDS011;39039;51.802;5.710;2022-11-24T10:35:38;10.57;;;2.27;;
12660;SDS011;39039;51.802;5.710;2022-11-24T10:38:15;6.00;;;1.77;;
12660;SDS011;39039;51.802;5.710;2022-11-24T10:40:47;5.50;;;1.73;;
12660;SDS011;39039;51.802;5.710;2022-11-24T10:43:14;9.63;;;1.40;;
12660;SDS011;39039;51.802;5.710;2022-11-24T10:45:41;12.30;;;2.40;;
12660;SDS011;39039;51.802;5.710;2022-11-24T10:48:11;4.30;;;1.70;;
12660;SDS011;39039;51.802;5.710;2022-11-24T10:50:43;5.53;;;1.70;;
12660;SDS011;39039;51.802;5.710;2022-11-24T10:53:15;10.00;;;2.10;;
12660;SDS011;39039;51.802;5.710;2022-11-24T10:55:56;10.27;;;2.53;;
12660;SDS011;39039;51.802;5.710;2022-11-24T10:58:24;9.47;;;1.93;;
12660;SDS011;39039;51.802;5.710;2022-11-24T11:00:52;7.27;;;1.73;;
12660;SDS011;39039;51.802;5.710;2022-11-24T11:03:19;9.10;;;1.90;;
12660;SDS011;39039;51.802;5.710;2022-11-24T11:05:47;14.03;;;2.50;;
12660;SDS011;39039;51.802;5.710;2022-11-24T11:08:21;11.23;;;2.93;;
12660;SDS011;39039;51.802;5.710;2022-11-24T11:10:49;11.00;;;2.20;;
12660;SDS011;39039;51.802;5.710;2022-11-24T11:13:23;9.17;;;2.13;;
12660;SDS011;39039;51.802;5.710;2022-11-24T11:15:50;11.10;;;1.93;;
12660;SDS011;39039;51.802;5.710;2022-11-24T11:18:18;10.10;;;1.77;;
12660;SDS011;39039;51.802;5.710;2022-11-24T11:20:50;11.13;;;1.80;;
12660;SDS011;39039;51.802;5.710;2022-11-24T11:23:21;8.80;;;2.00;;
12660;SDS011;39039;51.802;5.710;2022-11-24T11:25:48;9.47;;;2.07;;
12660;SDS011;39039;51.802;5.710;2022-11-24T11:28:17;10.87;;;2.93;;
12660;SDS011;39039;51.802;5.710;2022-11-24T11:30:53;8.10;;;2.00;;
12660;SDS011;39039;51.802;5.710;2022-11-24T11:33:23;10.60;;;1.93;;
12660;SDS011;39039;51.802;5.710;2022-11-24T11:35:50;16.13;;;2.60;;
12660;SDS011;39039;51.802;5.710;2022-11-24T11:38:17;10.07;;;1.67;;
12660;SDS011;39039;51.802;5.710;2022-11-24T11:40:46;9.13;;;1.70;;
12660;SDS011;39039;51.802;5.710;2022-11-24T11:43:16;10.83;;;1.87;;
12660;SDS011;39039;51.802;5.710;2022-11-24T11:45:44;8.43;;;2.33;;
12660;SDS011;39039;51.802;5.710;2022-11-24T11:48:17;10.13;;;2.17;;
12660;SDS011;39039;51.802;5.710;2022-11-24T11:50:52;9.13;;;1.70;;
12660;SDS011;39039;51.802;5.710;2022-11-24T11:53:24;14.57;;;2.70;;
12660;SDS011;39039;51.802;5.710;2022-11-24T11:55:59;8.23;;;1.83;;
12660;SDS011;39039;51.802;5.710;2022-11-24T11:58:36;12.73;;;2.17;;
12660;SDS011;39039;51.802;5.710;2022-11-24T12:01:10;8.20;;;2.53;;
12660;SDS011;39039;51.802;5.710;2022-11-24T12:03:47;9.23;;;2.00;;
12660;SDS011;39039;51.802;5.710;2022-11-24T12:06:20;5.23;;;1.60;;
12660;SDS011;39039;51.802;5.710;2022-11-24T12:08:55;5.90;;;1.67;;
12660;SDS011;39039;51.802;5.710;2022-11-24T12:11:26;9.63;;;2.27;;
12660;SDS011;39039;51.802;5.710;2022-11-24T12:14:00;15.47;;;2.07;;
12660;SDS011;39039;51.802;5.710;2022-11-24T12:16:36;6.43;;;1.67;;
12660;SDS011;39039;51.802;5.710;2022-11-24T12:19:12;12.63;;;1.67;;
12660;SDS011;39039;51.802;5.710;2022-11-24T12:21:41;10.37;;;2.53;;
12660;SDS011;39039;51.802;5.710;2022-11-24T12:24:11;9.53;;;2.17;;
12660;SDS011;39039;51.802;5.710;2022-11-24T12:26:42;8.67;;;2.13;;
12660;SDS011;39039;51.802;5.710;2022-11-24T12:29:20;6.60;;;1.60;;
12660;SDS011;39039;51.802;5.710;2022-11-24T12:31:53;8.57;;;1.73;;
12660;SDS011;39039;51.802;5.710;2022-11-24T12:34:28;12.13;;;2.20;;
12660;SDS011;39039;51.802;5.710;2022-11-24T12:37:05;13.83;;;2.20;;
12660;SDS011;39039;51.802;5.710;2022-11-24T12:39:44;10.50;;;2.33;;
12660;SDS011;39039;51.802;5.710;2022-11-24T12:42:21;8.40;;;1.93;;
12660;SDS011;39039;51.802;5.710;2022-11-24T12:44:58;11.87;;;2.17;;
12660;SDS011;39039;51.802;5.710;2022-11-24T12:47:33;5.60;;;1.87;;
12660;SDS011;39039;51.802;5.710;2022-11-24T12:50:05;9.00;;;1.80;;
12660;SDS011;39039;51.802;5.710;2022-11-24T12:52:35;17.57;;;2.13;;
12660;SDS011;39039;51.802;5.710;2022-11-24T12:55:03;6.47;;;1.60;;
12660;SDS011;39039;51.802;5.710;2022-11-24T12:57:34;10.33;;;1.70;;
12660;SDS011;39039;51.802;5.710;2022-11-24T13:00:05;7.10;;;1.93;;
12660;SDS011;39039;51.802;5.710;2022-11-24T13:02:37;5.47;;;1.60;;
12660;SDS011;39039;51.802;5.710;2022-11-24T13:05:10;14.17;;;2.13;;
12660;SDS011;39039;51.802;5.710;2022-11-24T13:07:41;7.53;;;1.70;;
12660;SDS011;39039;51.802;5.710;2022-11-24T13:12:56;15.90;;;1.80;;
12660;SDS011;39039;51.802;5.710;2022-11-24T13:15:23;12.60;;;1.87;;
12660;SDS011;39039;51.802;5.710;2022-11-24T13:17:51;12.17;;;1.83;;
12660;SDS011;39039;51.802;5.710;2022-11-24T13:20:21;13.57;;;2.13;;
12660;SDS011;39039;51.802;5.710;2022-11-24T13:22:49;9.63;;;2.00;;
12660;SDS011;39039;51.802;5.710;2022-11-24T13:25:18;6.93;;;1.53;;
12660;SDS011;39039;51.802;5.710;2022-11-24T13:27:46;6.67;;;1.80;;
12660;SDS011;39039;51.802;5.710;2022-11-24T13:33:28;9.90;;;1.67;;
12660;SDS011;39039;51.802;5.710;2022-11-24T13:38:55;8.20;;;1.70;;
12660;SDS011;39039;51.802;5.710;2022-11-24T13:44:22;12.90;;;2.23;;
12660;SDS011;39039;51.802;5.710;2022-11-24T13:46:55;13.03;;;2.30;;
12660;SDS011;39039;51.802;5.710;2022-11-24T13:49:24;8.23;;;2.07;;
12660;SDS011;39039;51.802;5.710;2022-11-24T13:54:45;7.63;;;1.60;;
12660;SDS011;39039;51.802;5.710;2022-11-24T13:59:59;5.00;;;1.47;;
12660;SDS011;39039;51.802;5.710;2022-11-24T14:02:26;9.53;;;1.83;;
12660;SDS011;39039;51.802;5.710;2022-11-24T14:04:55;11.50;;;1.83;;
12660;SDS011;39039;51.802;5.710;2022-11-24T14:07:23;9.90;;;2.33;;
12660;SDS011;39039;51.802;5.710;2022-11-24T14:09:50;9.57;;;2.03;;
12660;SDS011;39039;51.802;5.710;2022-11-24T14:12:18;8.10;;;2.03;;
12660;SDS011;39039;51.802;5.710;2022-11-24T14:14:46;12.57;;;2.17;;
12660;SDS011;39039;51.802;5.710;2022-11-24T14:17:14;20.00;;;2.40;;
12660;SDS011;39039;51.802;5.710;2022-11-24T14:19:42;10.53;;;2.03;;
12660;SDS011;39039;51.802;5.710;2022-11-24T14:22:16;12.37;;;2.13;;
12660;SDS011;39039;51.802;5.710;2022-11-24T14:24:44;11.30;;;1.77;;
12660;SDS011;39039;51.802;5.710;2022-11-24T14:27:12;8.87;;;1.90;;
12660;SDS011;39039;51.802;5.710;2022-11-24T14:29:52;7.60;;;1.97;;
12660;SDS011;39039;51.802;5.710;2022-11-24T14:32:22;8.47;;;1.70;;
12660;SDS011;39039;51.802;5.710;2022-11-24T14:34:49;7.87;;;1.90;;
12660;SDS011;39039;51.802;5.710;2022-11-24T14:37:19;10.17;;;1.97;;
12660;SDS011;39039;51.802;5.710;2022-11-24T14:39:46;10.23;;;1.83;;
12660;SDS011;39039;51.802;5.710;2022-11-24T14:42:15;14.73;;;2.20;;
12660;SDS011;39039;51.802;5.710;2022-11-24T14:44:44;14.63;;;2.40;;
12660;SDS011;39039;51.802;5.710;2022-11-24T14:47:13;10.83;;;2.07;;
12660;SDS011;39039;51.802;5.710;2022-11-24T14:49:42;9.67;;;2.40;;
12660;SDS011;39039;51.802;5.710;2022-11-24T14:52:10;7.47;;;2.53;;
12660;SDS011;39039;51.802;5.710;2022-11-24T14:54:44;11.27;;;2.43;;
12660;SDS011;39039;51.802;5.710;2022-11-24T14:57:22;6.73;;;2.13;;
12660;SDS011;39039;51.802;5.710;2022-11-24T15:00:04;17.23;;;3.23;;
12660;SDS011;39039;51.802;5.710;2022-11-24T15:02:39;11.47;;;2.53;;
12660;SDS011;39039;51.802;5.710;2022-11-24T15:05:07;9.47;;;2.57;;
12660;SDS011;39039;51.802;5.710;2022-11-24T15:07:34;13.00;;;3.10;;
12660;SDS011;39039;51.802;5.710;2022-11-24T15:10:04;11.20;;;2.23;;